Main page
METAR-TAF:

METAR-TAF

Airports :

Kushok Bakula Rimpochee Airport

Leh, India

latitude: 34-08-09N, longitude: 077-32-47E, elevation: 3256 m

METAR: missing

Time: 08:53 (03:23 UTC)

Forecast

The report was made 17 hours and 53 minutes ago, at 09:30 UTC
Forecast valid from 28 at 18 UTC to 01 at 12 UTC
Wind 15 kt from the West/Northwest
Visibility: 6000 m
Few clouds at a height of 6000 ft
Scattered clouds at a height of 9000 ft
Becoming
from 28 at 12 UTC to 28 at 23 UTC
Wind 10 kt from the West
Becoming
from 01 at 06 UTC to 01 at 08 UTC
Wind 15 kt from the West with gusts up to 25 kt

TAF: VILH 280930Z 2818/0112 29015KT 6000 FEW060 SCT090 BECMG 2812/2823 27010KT BECMG 0106/0108 27015G25KT

Weather observations and forecasts of more than 4000 airports (METAR and TAF reports).

The available stations are represented by yellow and red dots on the map.

Hover mouse over dot to see the name of the station.

Then click to see weather observations and forecasts.

To change the map : click on the green buttons with a black cross to zoom in, on the green button with a dash to zoom out, or on the green arrows for adjacent maps.


METAR-TAF: